createdAt,value
2019-03-09T00:00:15.274Z,1.10
2019-03-09T00:02:43.559Z,0.98
2019-03-09T00:05:12.176Z,1.17
2019-03-09T00:07:40.498Z,1.30
2019-03-09T00:10:08.960Z,1.52
2019-03-09T00:12:37.276Z,0.93
2019-03-09T00:15:05.843Z,1.12
2019-03-09T00:17:34.192Z,1.10
2019-03-09T00:20:02.186Z,0.90
2019-03-09T00:22:30.461Z,1.00
2019-03-09T00:25:20.536Z,1.07
2019-03-09T00:28:13.887Z,0.95
2019-03-09T00:30:51.388Z,1.00
2019-03-09T00:33:19.789Z,1.17
2019-03-09T00:35:47.926Z,1.10
2019-03-09T00:38:15.835Z,1.00
2019-03-09T00:40:44.576Z,1.15
2019-03-09T00:43:12.766Z,1.10
2019-03-09T00:45:41.033Z,0.90
2019-03-09T00:48:09.232Z,1.10
2019-03-09T00:50:37.422Z,1.02
2019-03-09T00:53:05.994Z,1.12
2019-03-09T00:55:34.024Z,1.10
2019-03-09T00:58:02.230Z,0.82
2019-03-09T01:00:30.505Z,1.00
2019-03-09T01:02:58.471Z,1.17
2019-03-09T01:05:26.824Z,1.10
2019-03-09T01:07:55.196Z,1.10
2019-03-09T01:10:23.396Z,1.10
2019-03-09T01:12:51.632Z,0.93
2019-03-09T01:15:20.124Z,1.17
2019-03-09T01:17:48.140Z,1.25
2019-03-09T01:20:17.022Z,1.35
2019-03-09T01:22:45.300Z,1.15
2019-03-09T01:25:13.584Z,1.10
2019-03-09T01:27:41.945Z,1.20
2019-03-09T01:30:12.543Z,1.15
2019-03-09T01:32:40.731Z,0.90
2019-03-09T01:35:09.015Z,0.90
2019-03-09T01:37:37.275Z,1.17
2019-03-09T01:40:06.767Z,1.30
2019-03-09T01:42:35.393Z,0.80
2019-03-09T01:45:03.620Z,1.12
2019-03-09T01:47:31.312Z,1.12
2019-03-09T01:49:59.769Z,0.90
2019-03-09T01:52:27.937Z,1.22
2019-03-09T01:54:56.647Z,1.02
2019-03-09T01:57:24.736Z,0.72
2019-03-09T01:59:52.881Z,0.90
2019-03-09T02:02:21.168Z,0.90
2019-03-09T02:04:49.336Z,1.00
2019-03-09T02:07:17.517Z,0.98
2019-03-09T02:09:45.780Z,0.93
2019-03-09T02:12:13.761Z,0.93
2019-03-09T02:14:42.597Z,0.98
2019-03-09T02:17:11.030Z,0.95
2019-03-09T02:19:39.826Z,0.82
2019-03-09T02:22:08.280Z,0.90
2019-03-09T02:24:36.487Z,0.80
2019-03-09T02:27:04.440Z,1.00
2019-03-09T02:29:32.981Z,1.32
2019-03-09T02:32:00.990Z,0.93
2019-03-09T02:34:28.883Z,1.00
2019-03-09T02:36:57.039Z,0.90
2019-03-09T02:39:40.150Z,1.12
2019-03-09T02:42:08.742Z,1.15
2019-03-09T02:44:37.018Z,1.15
2019-03-09T02:47:05.069Z,0.98
2019-03-09T02:49:33.122Z,1.10
2019-03-09T02:52:01.236Z,1.00
2019-03-09T02:54:30.342Z,0.93
2019-03-09T02:56:58.505Z,1.00
2019-03-09T02:59:26.646Z,1.17
2019-03-09T03:02:14.197Z,0.98
2019-03-09T03:04:42.462Z,0.80
2019-03-09T03:07:10.880Z,0.85
2019-03-09T03:09:39.036Z,0.78
2019-03-09T03:12:07.437Z,0.80
2019-03-09T03:14:36.006Z,0.98
2019-03-09T03:17:06.202Z,0.80
2019-03-09T03:19:34.277Z,0.80
2019-03-09T03:22:02.576Z,0.72
2019-03-09T03:24:30.917Z,0.80
2019-03-09T03:26:59.109Z,0.80
2019-03-09T03:29:31.117Z,0.70
2019-03-09T03:32:00.293Z,0.90
2019-03-09T03:34:28.531Z,0.70
2019-03-09T03:36:57.119Z,0.53
2019-03-09T03:39:25.389Z,0.80
2019-03-09T03:41:53.553Z,0.62
2019-03-09T03:44:21.819Z,0.80
2019-03-09T03:46:50.834Z,0.68
2019-03-09T03:49:18.929Z,0.68
2019-03-09T03:51:47.145Z,0.78
2019-03-09T03:54:15.233Z,1.00
2019-03-09T03:56:43.748Z,0.85
2019-03-09T03:59:11.899Z,0.80
2019-03-09T04:01:40.207Z,0.90
2019-03-09T04:04:08.339Z,0.60
2019-03-09T04:06:36.481Z,0.90
2019-03-09T04:09:06.753Z,0.95
2019-03-09T04:11:35.373Z,1.07
2019-03-09T04:14:03.512Z,1.00
2019-03-09T04:16:31.973Z,1.00
2019-03-09T04:19:00.184Z,1.00
2019-03-09T04:21:28.427Z,1.20
2019-03-09T04:23:57.141Z,1.35
2019-03-09T04:26:26.611Z,1.00
2019-03-09T04:28:56.309Z,1.30
2019-03-09T04:31:24.397Z,1.50
2019-03-09T04:33:53.027Z,1.20
2019-03-09T04:36:22.698Z,1.17
2019-03-09T04:38:50.909Z,1.40
2019-03-09T04:41:19.035Z,1.32
2019-03-09T04:43:47.240Z,1.07
2019-03-09T04:46:15.405Z,1.22
2019-03-09T04:48:43.589Z,1.00
2019-03-09T04:51:12.823Z,1.30
2019-03-09T04:53:42.074Z,1.00
2019-03-09T04:56:10.471Z,1.10
2019-03-09T04:58:38.913Z,1.20
2019-03-09T05:01:07.209Z,1.15
2019-03-09T05:03:36.806Z,1.22
2019-03-09T05:06:05.084Z,1.10
2019-03-09T05:09:00.711Z,1.47
2019-03-09T05:11:30.617Z,1.30
2019-03-09T05:14:05.680Z,1.22
2019-03-09T05:16:33.909Z,1.30
2019-03-09T05:19:02.239Z,1.20
2019-03-09T05:21:30.372Z,1.10
2019-03-09T05:24:00.239Z,1.52
2019-03-09T05:26:28.983Z,1.10
2019-03-09T05:28:57.556Z,1.17
2019-03-09T05:31:26.053Z,1.32
2019-03-09T05:33:54.216Z,1.20
2019-03-09T05:36:22.909Z,1.42
2019-03-09T05:38:51.304Z,1.32
2019-03-09T05:41:21.573Z,1.40
2019-03-09T05:43:49.735Z,1.52
2019-03-09T05:46:17.894Z,1.30
2019-03-09T05:48:46.259Z,1.40
2019-03-09T05:51:14.380Z,1.60
2019-03-09T05:53:42.700Z,1.50
2019-03-09T05:56:11.071Z,1.50
2019-03-09T05:58:40.583Z,1.30
2019-03-09T06:01:08.855Z,1.70
2019-03-09T06:03:37.604Z,1.87
2019-03-09T06:06:18.592Z,2.00
2019-03-09T06:08:47.920Z,2.08
2019-03-09T06:11:16.084Z,1.92
2019-03-09T06:13:44.340Z,2.50
2019-03-09T06:16:12.432Z,2.27
2019-03-09T06:18:41.388Z,2.55
2019-03-09T06:21:09.708Z,2.65
2019-03-09T06:23:38.283Z,3.02
2019-03-09T06:26:06.801Z,3.60
2019-03-09T06:28:35.200Z,3.10
2019-03-09T06:31:03.425Z,2.25
2019-03-09T06:33:35.764Z,2.35
2019-03-09T06:36:55.369Z,2.50
2019-03-09T06:39:53.096Z,2.70
2019-03-09T06:42:48.444Z,2.92
2019-03-09T06:45:17.593Z,2.40
2019-03-09T06:47:46.195Z,2.22
2019-03-09T06:50:20.088Z,2.62
2019-03-09T06:52:48.942Z,1.95
2019-03-09T06:55:17.172Z,2.55
2019-03-09T06:57:45.657Z,2.30
2019-03-09T07:00:34.413Z,2.22
2019-03-09T07:03:02.492Z,2.27
2019-03-09T07:05:30.644Z,2.42
2019-03-09T07:08:00.252Z,2.00
2019-03-09T07:10:28.577Z,2.00
2019-03-09T07:12:57.031Z,1.82
2019-03-09T07:15:30.468Z,1.80
2019-03-09T07:18:04.124Z,1.85
2019-03-09T07:20:32.303Z,1.30
2019-03-09T07:23:01.687Z,1.40
2019-03-09T07:25:29.947Z,1.10
2019-03-09T07:28:02.770Z,1.30
2019-03-09T07:30:31.746Z,1.30
2019-03-09T07:33:00.341Z,1.15
2019-03-09T07:35:28.687Z,1.32
2019-03-09T07:37:57.894Z,0.98
2019-03-09T07:40:26.156Z,1.05
2019-03-09T07:42:54.597Z,1.40
2019-03-09T07:45:22.819Z,1.40
2019-03-09T07:47:52.150Z,1.20
2019-03-09T07:50:23.148Z,1.20
2019-03-09T07:52:51.357Z,1.57
2019-03-09T07:55:20.237Z,1.25
2019-03-09T07:57:48.791Z,1.20
2019-03-09T08:00:18.568Z,0.90
2019-03-09T08:02:46.912Z,1.00
2019-03-09T08:05:19.406Z,1.05
2019-03-09T08:07:47.367Z,1.22
2019-03-09T08:10:17.173Z,1.40
2019-03-09T08:12:46.158Z,1.17
2019-03-09T08:15:17.091Z,1.17
2019-03-09T08:17:45.489Z,1.10
2019-03-09T08:20:14.168Z,1.02
2019-03-09T08:22:42.476Z,1.05
2019-03-09T08:25:10.995Z,1.30
2019-03-09T08:27:39.638Z,1.10
2019-03-09T08:30:14.168Z,1.22
2019-03-09T08:32:43.293Z,1.05
2019-03-09T08:35:11.376Z,0.90
2019-03-09T08:37:40.091Z,1.10
2019-03-09T08:40:09.930Z,1.50
2019-03-09T08:42:38.460Z,1.33
2019-03-09T08:45:07.154Z,1.32
2019-03-09T08:47:35.361Z,1.40
2019-03-09T08:50:04.425Z,0.90
2019-03-09T08:52:32.782Z,1.00
2019-03-09T08:55:02.989Z,1.10
2019-03-09T08:57:30.977Z,1.15
2019-03-09T08:59:59.395Z,1.20
2019-03-09T09:02:27.659Z,1.20
2019-03-09T09:04:56.772Z,1.32
2019-03-09T09:07:25.406Z,1.00
2019-03-09T09:09:53.706Z,1.25
2019-03-09T09:12:21.993Z,1.27
2019-03-09T09:14:50.428Z,1.10
2019-03-09T09:17:19.562Z,1.85
2019-03-09T09:19:47.607Z,1.20
2019-03-09T09:22:15.599Z,1.25
2019-03-09T09:24:43.799Z,1.65
2019-03-09T09:27:12.864Z,0.98
2019-03-09T09:29:40.924Z,0.80
2019-03-09T09:32:10.424Z,1.30
2019-03-09T09:34:38.299Z,0.80
2019-03-09T09:37:06.859Z,0.80
2019-03-09T09:39:35.895Z,0.60
2019-03-09T09:42:04.342Z,0.82
2019-03-09T09:44:32.436Z,0.78
2019-03-09T09:47:01.027Z,0.80
2019-03-09T09:49:29.821Z,0.88
2019-03-09T09:51:58.355Z,1.02
2019-03-09T09:54:27.614Z,0.70
2019-03-09T09:56:56.241Z,0.80
2019-03-09T09:59:24.624Z,0.80
2019-03-09T10:01:53.240Z,0.70
2019-03-09T10:04:22.301Z,0.70
2019-03-09T10:06:50.607Z,0.80
2019-03-09T10:09:19.188Z,0.60
2019-03-09T10:11:47.175Z,0.80
2019-03-09T10:14:15.399Z,0.65
2019-03-09T10:16:44.528Z,0.70
2019-03-09T10:19:12.589Z,0.70
2019-03-09T10:21:41.064Z,0.70
2019-03-09T10:24:09.585Z,0.60
2019-03-09T10:26:37.502Z,0.50
2019-03-09T10:29:06.120Z,0.70
2019-03-09T10:31:34.486Z,0.68
2019-03-09T10:34:02.968Z,0.50
2019-03-09T10:36:31.125Z,0.50
2019-03-09T10:38:59.496Z,0.50
2019-03-09T10:41:27.866Z,0.57
2019-03-09T10:43:58.164Z,0.40
2019-03-09T10:46:26.940Z,0.60
2019-03-09T10:48:55.673Z,0.50
2019-03-09T10:51:23.556Z,0.40
2019-03-09T10:53:51.657Z,0.50
2019-03-09T10:56:19.800Z,0.50
2019-03-09T10:58:48.287Z,0.68
2019-03-09T11:01:15.976Z,0.50
2019-03-09T11:03:43.777Z,0.40
2019-03-09T11:06:11.520Z,0.47
2019-03-09T11:08:39.516Z,0.50
2019-03-09T11:11:07.225Z,0.40
2019-03-09T11:13:35.596Z,0.40
2019-03-09T11:16:03.393Z,0.33
2019-03-09T11:18:34.137Z,0.60
2019-03-09T11:21:02.138Z,0.50
2019-03-09T11:23:30.553Z,0.30
2019-03-09T11:25:58.310Z,0.47
2019-03-09T11:28:26.029Z,0.40
2019-03-09T11:30:53.700Z,0.80
2019-03-09T11:33:21.416Z,0.90
2019-03-09T11:35:49.528Z,0.80
2019-03-09T11:38:18.168Z,0.60
2019-03-09T11:40:56.588Z,0.42
2019-03-09T11:43:16.150Z,0.60
2019-03-09T11:45:44.340Z,0.55
2019-03-09T11:48:13.306Z,0.65
2019-03-09T11:50:41.931Z,0.62
2019-03-09T11:53:09.955Z,0.60
2019-03-09T11:55:37.657Z,0.40
2019-03-09T11:58:05.683Z,0.68
2019-03-09T12:00:35.202Z,0.45
2019-03-09T12:03:03.492Z,0.42
2019-03-09T12:05:33.528Z,0.50
2019-03-09T12:08:01.307Z,0.50
2019-03-09T12:10:29.328Z,0.72
2019-03-09T12:12:57.404Z,0.53
2019-03-09T12:15:25.127Z,0.50
2019-03-09T12:17:53.251Z,0.75
2019-03-09T12:20:22.252Z,0.72
2019-03-09T12:22:50.323Z,0.70
2019-03-09T12:25:18.473Z,0.60
2019-03-09T12:27:47.052Z,0.60
2019-03-09T12:30:15.166Z,0.30
2019-03-09T12:32:42.912Z,0.42
2019-03-09T12:35:12.035Z,0.50
2019-03-09T12:37:39.696Z,0.60
2019-03-09T12:40:11.897Z,0.50
2019-03-09T12:42:39.801Z,0.55
2019-03-09T12:45:09.227Z,0.40
2019-03-09T12:47:39.212Z,0.70
2019-03-09T12:50:10.946Z,0.60
2019-03-09T12:52:39.157Z,0.45
2019-03-09T12:55:09.261Z,0.70
2019-03-09T12:57:37.421Z,0.70
2019-03-09T13:00:07.998Z,0.70
2019-03-09T13:02:36.003Z,0.60
2019-03-09T13:05:04.511Z,0.70
2019-03-09T13:07:32.296Z,0.70
2019-03-09T13:10:00.067Z,0.50
2019-03-09T13:12:27.800Z,0.62
2019-03-09T13:14:56.219Z,0.60
2019-03-09T13:17:24.569Z,0.70
2019-03-09T13:19:52.272Z,0.70
2019-03-09T13:22:20.765Z,0.42
2019-03-09T13:24:48.463Z,0.60
2019-03-09T13:27:16.490Z,0.47
2019-03-09T13:29:44.731Z,0.60
2019-03-09T13:32:12.896Z,0.60
2019-03-09T13:34:41.657Z,0.57
2019-03-09T13:37:09.567Z,0.80
2019-03-09T13:39:37.636Z,0.60
2019-03-09T13:42:05.369Z,0.70
2019-03-09T13:44:33.367Z,0.70
2019-03-09T13:47:04.168Z,0.80
2019-03-09T13:51:59.298Z,0.65
2019-03-09T13:54:27.357Z,0.68
2019-03-09T13:56:55.383Z,0.40
2019-03-09T13:59:24.452Z,0.50
2019-03-09T14:01:52.216Z,0.60
2019-03-09T14:04:19.896Z,0.70
2019-03-09T14:06:48.014Z,0.70
2019-03-09T14:09:16.381Z,0.60
2019-03-09T14:11:45.000Z,0.60
2019-03-09T14:14:13.104Z,0.55
2019-03-09T14:16:41.130Z,0.65
2019-03-09T14:19:09.487Z,0.75
2019-03-09T14:21:37.856Z,0.57
2019-03-09T14:24:05.815Z,0.50
2019-03-09T14:26:34.939Z,0.60
2019-03-09T14:29:02.627Z,0.70
2019-03-09T14:31:30.692Z,0.60
2019-03-09T14:33:58.784Z,0.68
2019-03-09T14:36:27.321Z,1.25
2019-03-09T14:38:55.769Z,0.70
2019-03-09T14:41:23.484Z,0.60
2019-03-09T14:43:53.041Z,0.70
2019-03-09T14:46:21.150Z,0.65
2019-03-09T14:48:50.273Z,0.90
2019-03-09T14:51:18.436Z,0.70
2019-03-09T14:53:46.167Z,0.70
2019-03-09T14:56:13.846Z,0.50
2019-03-09T14:58:41.895Z,0.57
2019-03-09T15:01:09.597Z,0.60
2019-03-09T15:03:37.931Z,0.70
2019-03-09T15:06:05.608Z,0.60
2019-03-09T15:08:33.380Z,0.60
2019-03-09T15:11:01.356Z,0.60
2019-03-09T15:13:29.246Z,0.68
2019-03-09T15:15:57.228Z,0.50
2019-03-09T15:18:25.006Z,0.50
2019-03-09T15:20:52.680Z,0.45
2019-03-09T15:23:20.839Z,0.53
2019-03-09T15:25:48.538Z,0.50
2019-03-09T15:28:16.716Z,0.60
2019-03-09T15:30:44.440Z,0.55
2019-03-09T15:33:12.240Z,0.60
2019-03-09T15:35:39.977Z,0.62
2019-03-09T15:38:08.154Z,0.50
2019-03-09T15:40:36.263Z,0.60
2019-03-09T15:43:04.071Z,0.90
2019-03-09T15:45:31.772Z,0.50
2019-03-09T15:47:59.508Z,0.68
2019-03-09T15:50:27.208Z,0.55
2019-03-09T15:52:55.531Z,0.60
2019-03-09T15:55:23.647Z,0.70
2019-03-09T15:57:51.375Z,0.60
2019-03-09T16:00:19.263Z,0.60
2019-03-09T16:02:47.600Z,0.60
2019-03-09T16:05:15.788Z,0.70
2019-03-09T16:07:44.330Z,0.55
2019-03-09T16:10:13.073Z,0.80
2019-03-09T16:12:41.622Z,0.80
2019-03-09T16:15:10.287Z,0.60
2019-03-09T16:17:38.115Z,0.50
2019-03-09T16:20:07.088Z,0.50
2019-03-09T16:22:35.188Z,0.62
2019-03-09T16:25:02.944Z,0.70
2019-03-09T16:27:30.623Z,0.50
2019-03-09T16:29:59.199Z,0.60
2019-03-09T16:32:28.161Z,0.60
2019-03-09T16:34:56.215Z,0.40
2019-03-09T16:37:23.889Z,0.40
2019-03-09T16:39:52.936Z,0.30
2019-03-09T16:42:21.044Z,0.50
2019-03-09T16:44:48.724Z,0.50
2019-03-09T16:47:16.740Z,0.50
2019-03-09T16:49:44.929Z,0.35
2019-03-09T16:52:13.048Z,0.60
2019-03-09T16:54:41.064Z,0.50
2019-03-09T16:57:09.440Z,0.50
2019-03-09T16:59:37.439Z,0.40
2019-03-09T17:02:05.505Z,0.50
2019-03-09T17:04:33.707Z,0.45
2019-03-09T17:07:01.718Z,0.50
2019-03-09T17:09:29.885Z,0.50
2019-03-09T17:11:58.184Z,0.37
2019-03-09T17:14:26.579Z,0.33
2019-03-09T17:16:54.289Z,0.50
2019-03-09T17:19:23.352Z,0.50
2019-03-09T17:21:51.072Z,0.50
2019-03-09T17:24:18.823Z,0.45
2019-03-09T17:26:46.500Z,0.45
2019-03-09T17:29:14.708Z,0.40
2019-03-09T17:31:42.486Z,0.55
2019-03-09T17:34:10.571Z,0.40
2019-03-09T17:36:38.909Z,0.50
2019-03-09T17:39:09.649Z,0.50
2019-03-09T17:44:05.164Z,0.40
2019-03-09T17:46:34.241Z,0.50
2019-03-09T17:49:01.935Z,1.75
2019-03-09T17:51:29.813Z,0.82
2019-03-09T17:53:58.985Z,0.40
2019-03-09T17:56:30.529Z,0.50
2019-03-09T17:59:01.011Z,0.40
2019-03-09T18:01:31.161Z,0.50
2019-03-09T18:04:01.748Z,0.40
2019-03-09T18:06:34.254Z,0.40
2019-03-09T18:09:07.400Z,0.20
2019-03-09T18:11:35.752Z,0.20
2019-03-09T18:14:07.302Z,0.30
2019-03-09T18:16:35.406Z,0.20
2019-03-09T18:19:03.999Z,0.20
2019-03-09T18:21:36.318Z,0.33
2019-03-09T18:24:04.466Z,0.30
2019-03-09T18:26:33.521Z,0.40
2019-03-09T18:29:01.512Z,0.40
2019-03-09T18:31:29.571Z,0.47
2019-03-09T18:33:58.239Z,0.30
2019-03-09T18:36:25.960Z,0.50
2019-03-09T18:38:54.561Z,0.37
2019-03-09T18:41:24.636Z,0.30
2019-03-09T18:43:52.647Z,0.40
2019-03-09T18:46:20.796Z,0.30
2019-03-09T18:48:49.419Z,0.45
2019-03-09T18:51:17.856Z,0.40
2019-03-09T18:53:45.530Z,0.40
2019-03-09T18:56:14.236Z,0.40
2019-03-09T18:58:41.975Z,0.30
2019-03-09T19:01:10.194Z,0.40
2019-03-09T19:03:39.042Z,0.47
2019-03-09T19:06:06.773Z,0.50
2019-03-09T19:08:34.518Z,0.37
2019-03-09T19:11:02.583Z,0.50
2019-03-09T19:13:30.681Z,0.50
2019-03-09T19:15:58.389Z,0.60
2019-03-09T19:18:26.533Z,0.50
2019-03-09T19:20:54.285Z,0.72
2019-03-09T19:23:22.432Z,0.90
2019-03-09T19:25:50.914Z,0.70
2019-03-09T19:28:18.895Z,0.70
2019-03-09T19:30:47.433Z,0.47
2019-03-09T19:33:15.270Z,0.90
2019-03-09T19:35:42.941Z,0.80
2019-03-09T19:38:11.462Z,0.70
2019-03-09T19:40:39.280Z,0.60
2019-03-09T19:43:08.660Z,0.80
2019-03-09T19:45:36.391Z,0.80
2019-03-09T19:48:05.440Z,0.80
2019-03-09T19:50:33.151Z,0.90
2019-03-09T19:53:01.789Z,1.22
2019-03-09T19:55:30.383Z,1.37
2019-03-09T19:58:00.377Z,1.50
2019-03-09T20:00:28.193Z,1.50
2019-03-09T20:02:56.415Z,1.90
2019-03-09T20:05:24.430Z,1.72
2019-03-09T20:07:52.131Z,1.82
2019-03-09T20:10:21.307Z,2.20
2019-03-09T20:12:49.408Z,2.12
2019-03-09T20:15:17.270Z,1.90
2019-03-09T20:17:47.294Z,2.20
2019-03-09T20:20:16.415Z,2.17
2019-03-09T20:22:45.016Z,1.92
2019-03-09T20:25:14.029Z,1.85
2019-03-09T20:27:42.056Z,1.70
2019-03-09T20:30:10.788Z,1.70
2019-03-09T20:32:39.084Z,1.70
2019-03-09T20:35:07.143Z,1.60
2019-03-09T20:37:35.264Z,1.37
2019-03-09T20:40:04.075Z,1.30
2019-03-09T20:42:32.953Z,1.62
2019-03-09T20:45:04.337Z,1.30
2019-03-09T20:47:36.483Z,1.30
2019-03-09T20:50:13.410Z,1.30
2019-03-09T20:52:42.080Z,1.40
2019-03-09T20:55:12.384Z,1.35
2019-03-09T20:57:44.709Z,1.45
2019-03-09T21:00:15.885Z,1.30
2019-03-09T21:02:45.582Z,0.98
2019-03-09T21:05:14.400Z,1.10
2019-03-09T21:07:43.729Z,1.20
2019-03-09T21:10:14.224Z,0.98
2019-03-09T21:12:55.630Z,0.90
2019-03-09T21:15:24.098Z,1.00
2019-03-09T21:17:52.291Z,0.60
2019-03-09T21:20:20.646Z,0.72
2019-03-09T21:22:48.972Z,0.70
2019-03-09T21:25:18.437Z,0.75
2019-03-09T21:27:52.998Z,1.20
2019-03-09T21:30:21.862Z,1.02
2019-03-09T21:32:51.327Z,0.98
2019-03-09T21:35:18.993Z,0.70
2019-03-09T21:37:48.571Z,0.78
2019-03-09T21:40:16.684Z,0.72
2019-03-09T21:42:45.296Z,0.70
2019-03-09T21:45:13.864Z,0.60
2019-03-09T21:47:42.062Z,0.93
2019-03-09T21:50:11.328Z,0.72
2019-03-09T21:52:39.846Z,0.85
2019-03-09T21:55:10.970Z,0.70
2019-03-09T21:57:39.762Z,0.80
2019-03-09T22:00:09.390Z,0.70
2019-03-09T22:02:37.616Z,0.62
2019-03-09T22:05:07.880Z,0.68
2019-03-09T22:07:37.033Z,0.80
2019-03-09T22:10:05.803Z,0.62
2019-03-09T22:12:34.720Z,0.47
2019-03-09T22:15:03.846Z,0.57
2019-03-09T22:17:32.941Z,0.60
2019-03-09T22:20:02.123Z,0.57
2019-03-09T22:22:30.606Z,0.60
2019-03-09T22:25:00.307Z,0.60
2019-03-09T22:27:29.746Z,0.60
2019-03-09T22:29:57.606Z,0.70
2019-03-09T22:32:25.821Z,0.57
2019-03-09T22:34:54.668Z,0.57
2019-03-09T22:37:23.136Z,0.62
2019-03-09T22:39:52.432Z,0.68
2019-03-09T22:42:22.124Z,0.70
2019-03-09T22:44:50.731Z,0.40
2019-03-09T22:47:18.733Z,0.62
2019-03-09T22:49:46.759Z,0.55
2019-03-09T22:52:16.516Z,0.50
2019-03-09T22:54:45.351Z,0.80
2019-03-09T22:57:13.504Z,0.60
2019-03-09T22:59:42.296Z,0.70
2019-03-09T23:02:11.203Z,0.60
2019-03-09T23:04:39.163Z,0.50
2019-03-09T23:07:06.909Z,0.80
2019-03-09T23:09:35.711Z,0.60
2019-03-09T23:12:04.535Z,0.50
2019-03-09T23:14:32.889Z,0.62
2019-03-09T23:17:01.380Z,0.42
2019-03-09T23:19:30.549Z,0.60
2019-03-09T23:21:58.570Z,0.62
2019-03-09T23:24:27.429Z,0.60
2019-03-09T23:26:55.542Z,0.50
2019-03-09T23:29:23.652Z,0.40
2019-03-09T23:31:53.000Z,0.50
2019-03-09T23:34:20.970Z,0.75
2019-03-09T23:36:49.140Z,0.45
2019-03-09T23:39:17.192Z,0.60
2019-03-09T23:41:45.265Z,0.60
2019-03-09T23:44:13.337Z,0.40
2019-03-09T23:46:41.388Z,0.70
2019-03-09T23:49:09.888Z,0.60
2019-03-09T23:51:37.939Z,0.60
2019-03-09T23:54:06.032Z,0.47
2019-03-09T23:56:34.091Z,0.70
2019-03-09T23:59:02.804Z,0.47
